sensor_id;sensor_type;location;lat;lon;timestamp;temperature;humidity
40822;DHT22;26542;50.836;5.356;2022-08-21T00:00:00;16.30;97.80
40822;DHT22;26542;50.836;5.356;2022-08-21T00:02:27;16.40;97.80
40822;DHT22;26542;50.836;5.356;2022-08-21T00:04:54;16.40;97.50
40822;DHT22;26542;50.836;5.356;2022-08-21T00:07:20;16.40;97.50
40822;DHT22;26542;50.836;5.356;2022-08-21T00:09:47;16.20;97.70
40822;DHT22;26542;50.836;5.356;2022-08-21T00:12:20;16.20;97.80
40822;DHT22;26542;50.836;5.356;2022-08-21T00:14:47;16.10;97.80
40822;DHT22;26542;50.836;5.356;2022-08-21T00:17:15;16.10;97.70
40822;DHT22;26542;50.836;5.356;2022-08-21T00:19:41;16.10;97.90
40822;DHT22;26542;50.836;5.356;2022-08-21T00:22:07;16.10;98.00
40822;DHT22;26542;50.836;5.356;2022-08-21T00:24:33;16.00;98.10
40822;DHT22;26542;50.836;5.356;2022-08-21T00:26:59;16.00;98.30
40822;DHT22;26542;50.836;5.356;2022-08-21T00:29:25;16.10;97.80
40822;DHT22;26542;50.836;5.356;2022-08-21T00:31:52;16.10;97.80
40822;DHT22;26542;50.836;5.356;2022-08-21T00:34:18;16.10;97.80
40822;DHT22;26542;50.836;5.356;2022-08-21T00:36:44;16.10;97.70
40822;DHT22;26542;50.836;5.356;2022-08-21T00:39:12;16.10;97.90
40822;DHT22;26542;50.836;5.356;2022-08-21T00:41:41;15.90;98.00
40822;DHT22;26542;50.836;5.356;2022-08-21T00:44:11;15.90;98.40
40822;DHT22;26542;50.836;5.356;2022-08-21T00:46:38;15.90;98.40
40822;DHT22;26542;50.836;5.356;2022-08-21T00:49:05;15.80;98.50
40822;DHT22;26542;50.836;5.356;2022-08-21T00:51:47;15.90;98.20
40822;DHT22;26542;50.836;5.356;2022-08-21T00:54:15;15.90;98.20
40822;DHT22;26542;50.836;5.356;2022-08-21T00:56:44;15.90;98.10
40822;DHT22;26542;50.836;5.356;2022-08-21T00:59:10;15.80;98.40
40822;DHT22;26542;50.836;5.356;2022-08-21T01:01:36;15.80;98.30
40822;DHT22;26542;50.836;5.356;2022-08-21T01:04:04;15.80;98.40
40822;DHT22;26542;50.836;5.356;2022-08-21T01:06:33;15.80;98.30
40822;DHT22;26542;50.836;5.356;2022-08-21T01:09:01;15.80;98.40
40822;DHT22;26542;50.836;5.356;2022-08-21T01:11:27;15.70;98.60
40822;DHT22;26542;50.836;5.356;2022-08-21T01:13:53;15.70;98.70
40822;DHT22;26542;50.836;5.356;2022-08-21T01:16:21;15.70;98.70
40822;DHT22;26542;50.836;5.356;2022-08-21T01:18:48;15.70;98.70
40822;DHT22;26542;50.836;5.356;2022-08-21T01:21:16;15.70;98.70
40822;DHT22;26542;50.836;5.356;2022-08-21T01:23:47;15.70;98.60
40822;DHT22;26542;50.836;5.356;2022-08-21T01:26:14;15.70;98.70
40822;DHT22;26542;50.836;5.356;2022-08-21T01:28:55;15.60;98.80
40822;DHT22;26542;50.836;5.356;2022-08-21T01:31:24;15.60;98.80
40822;DHT22;26542;50.836;5.356;2022-08-21T01:33:54;15.60;98.70
40822;DHT22;26542;50.836;5.356;2022-08-21T01:36:23;15.70;98.50
40822;DHT22;26542;50.836;5.356;2022-08-21T01:38:49;15.80;98.20
40822;DHT22;26542;50.836;5.356;2022-08-21T01:41:15;15.60;98.40
40822;DHT22;26542;50.836;5.356;2022-08-21T01:43:44;15.60;98.40
40822;DHT22;26542;50.836;5.356;2022-08-21T01:46:11;15.50;98.80
40822;DHT22;26542;50.836;5.356;2022-08-21T01:48:39;15.40;98.90
40822;DHT22;26542;50.836;5.356;2022-08-21T01:51:05;15.40;99.20
40822;DHT22;26542;50.836;5.356;2022-08-21T01:53:33;15.40;99.30
40822;DHT22;26542;50.836;5.356;2022-08-21T01:56:01;15.40;99.20
40822;DHT22;26542;50.836;5.356;2022-08-21T01:58:27;15.40;99.20
40822;DHT22;26542;50.836;5.356;2022-08-21T02:00:56;15.30;99.20
40822;DHT22;26542;50.836;5.356;2022-08-21T02:03:21;15.30;99.30
40822;DHT22;26542;50.836;5.356;2022-08-21T02:05:47;15.30;99.40
40822;DHT22;26542;50.836;5.356;2022-08-21T02:08:13;15.30;99.40
40822;DHT22;26542;50.836;5.356;2022-08-21T02:10:39;15.30;99.50
40822;DHT22;26542;50.836;5.356;2022-08-21T02:13:06;15.30;99.40
40822;DHT22;26542;50.836;5.356;2022-08-21T02:15:32;15.30;99.30
40822;DHT22;26542;50.836;5.356;2022-08-21T02:18:00;15.40;99.20
40822;DHT22;26542;50.836;5.356;2022-08-21T02:20:33;15.30;99.20
40822;DHT22;26542;50.836;5.356;2022-08-21T02:23:00;15.40;99.20
40822;DHT22;26542;50.836;5.356;2022-08-21T02:25:27;15.30;99.20
40822;DHT22;26542;50.836;5.356;2022-08-21T02:27:57;15.30;99.20
40822;DHT22;26542;50.836;5.356;2022-08-21T02:30:32;15.30;99.30
40822;DHT22;26542;50.836;5.356;2022-08-21T02:32:59;15.30;99.30
40822;DHT22;26542;50.836;5.356;2022-08-21T02:35:25;15.30;99.40
40822;DHT22;26542;50.836;5.356;2022-08-21T02:37:53;15.30;99.50
40822;DHT22;26542;50.836;5.356;2022-08-21T02:40:22;15.30;99.40
40822;DHT22;26542;50.836;5.356;2022-08-21T02:42:50;15.30;99.40
40822;DHT22;26542;50.836;5.356;2022-08-21T02:45:17;15.30;99.40
40822;DHT22;26542;50.836;5.356;2022-08-21T02:48:02;15.40;99.40
40822;DHT22;26542;50.836;5.356;2022-08-21T02:50:32;15.40;99.40
40822;DHT22;26542;50.836;5.356;2022-08-21T02:52:59;15.40;99.70
40822;DHT22;26542;50.836;5.356;2022-08-21T02:55:28;15.40;99.70
40822;DHT22;26542;50.836;5.356;2022-08-21T02:57:55;15.50;99.90
40822;DHT22;26542;50.836;5.356;2022-08-21T03:00:26;15.50;99.70
40822;DHT22;26542;50.836;5.356;2022-08-21T03:02:52;15.50;99.80
40822;DHT22;26542;50.836;5.356;2022-08-21T03:05:19;15.50;99.90
40822;DHT22;26542;50.836;5.356;2022-08-21T03:07:47;15.50;99.80
40822;DHT22;26542;50.836;5.356;2022-08-21T03:10:14;15.50;99.90
40822;DHT22;26542;50.836;5.356;2022-08-21T03:12:40;15.60;99.90
40822;DHT22;26542;50.836;5.356;2022-08-21T03:15:08;15.50;99.90
40822;DHT22;26542;50.836;5.356;2022-08-21T03:17:35;15.50;99.90
40822;DHT22;26542;50.836;5.356;2022-08-21T03:20:01;15.50;99.90
40822;DHT22;26542;50.836;5.356;2022-08-21T03:22:28;15.50;99.80
40822;DHT22;26542;50.836;5.356;2022-08-21T03:24:53;15.50;99.80
40822;DHT22;26542;50.836;5.356;2022-08-21T03:27:19;15.50;99.70
40822;DHT22;26542;50.836;5.356;2022-08-21T03:29:47;15.50;99.60
40822;DHT22;26542;50.836;5.356;2022-08-21T03:32:15;15.50;99.90
40822;DHT22;26542;50.836;5.356;2022-08-21T03:34:41;15.50;99.70
40822;DHT22;26542;50.836;5.356;2022-08-21T03:37:08;15.50;99.70
40822;DHT22;26542;50.836;5.356;2022-08-21T03:39:35;15.50;99.70
40822;DHT22;26542;50.836;5.356;2022-08-21T03:42:01;15.50;99.70
40822;DHT22;26542;50.836;5.356;2022-08-21T03:44:27;15.50;99.70
40822;DHT22;26542;50.836;5.356;2022-08-21T03:46:54;15.50;99.60
40822;DHT22;26542;50.836;5.356;2022-08-21T03:49:20;15.40;99.60
40822;DHT22;26542;50.836;5.356;2022-08-21T03:51:46;15.40;99.50
40822;DHT22;26542;50.836;5.356;2022-08-21T03:54:12;15.40;99.60
40822;DHT22;26542;50.836;5.356;2022-08-21T03:56:38;15.40;99.60
40822;DHT22;26542;50.836;5.356;2022-08-21T03:59:05;15.30;99.60
40822;DHT22;26542;50.836;5.356;2022-08-21T04:01:31;15.30;99.50
40822;DHT22;26542;50.836;5.356;2022-08-21T04:04:01;15.20;99.50
40822;DHT22;26542;50.836;5.356;2022-08-21T04:06:27;15.20;99.60
40822;DHT22;26542;50.836;5.356;2022-08-21T04:08:56;15.20;99.30
40822;DHT22;26542;50.836;5.356;2022-08-21T04:11:21;15.30;99.20
40822;DHT22;26542;50.836;5.356;2022-08-21T04:13:47;15.30;99.40
40822;DHT22;26542;50.836;5.356;2022-08-21T04:16:16;15.20;99.70
40822;DHT22;26542;50.836;5.356;2022-08-21T04:18:44;15.30;99.90
40822;DHT22;26542;50.836;5.356;2022-08-21T04:21:11;15.20;99.90
40822;DHT22;26542;50.836;5.356;2022-08-21T04:23:37;15.20;99.90
40822;DHT22;26542;50.836;5.356;2022-08-21T04:26:03;15.10;99.90
40822;DHT22;26542;50.836;5.356;2022-08-21T04:28:29;15.10;99.90
40822;DHT22;26542;50.836;5.356;2022-08-21T04:30:55;15.10;99.90
40822;DHT22;26542;50.836;5.356;2022-08-21T04:33:22;15.10;99.90
40822;DHT22;26542;50.836;5.356;2022-08-21T04:35:49;15.10;99.90
40822;DHT22;26542;50.836;5.356;2022-08-21T04:38:15;15.20;99.90
40822;DHT22;26542;50.836;5.356;2022-08-21T04:40:41;15.10;99.90
40822;DHT22;26542;50.836;5.356;2022-08-21T04:43:09;15.20;99.90
40822;DHT22;26542;50.836;5.356;2022-08-21T04:45:39;15.20;99.90
40822;DHT22;26542;50.836;5.356;2022-08-21T04:48:07;15.30;99.90
40822;DHT22;26542;50.836;5.356;2022-08-21T04:53:53;15.20;99.90
40822;DHT22;26542;50.836;5.356;2022-08-21T04:56:17;15.10;99.90
40822;DHT22;26542;50.836;5.356;2022-08-21T04:58:43;15.10;99.90
40822;DHT22;26542;50.836;5.356;2022-08-21T05:01:19;15.20;99.90
40822;DHT22;26542;50.836;5.356;2022-08-21T05:03:47;15.10;99.90
40822;DHT22;26542;50.836;5.356;2022-08-21T05:06:15;15.10;99.90
40822;DHT22;26542;50.836;5.356;2022-08-21T05:08:47;15.20;99.90
40822;DHT22;26542;50.836;5.356;2022-08-21T05:11:14;15.10;99.90
40822;DHT22;26542;50.836;5.356;2022-08-21T05:13:40;15.10;99.90
40822;DHT22;26542;50.836;5.356;2022-08-21T05:16:09;15.10;99.90
40822;DHT22;26542;50.836;5.356;2022-08-21T05:18:38;15.20;99.90
40822;DHT22;26542;50.836;5.356;2022-08-21T05:21:06;15.20;99.90
40822;DHT22;26542;50.836;5.356;2022-08-21T05:23:35;15.20;99.90
40822;DHT22;26542;50.836;5.356;2022-08-21T05:26:01;15.20;99.90
40822;DHT22;26542;50.836;5.356;2022-08-21T05:28:28;15.40;99.90
40822;DHT22;26542;50.836;5.356;2022-08-21T05:30:54;15.60;99.90
40822;DHT22;26542;50.836;5.356;2022-08-21T05:33:20;15.80;99.90
40822;DHT22;26542;50.836;5.356;2022-08-21T05:35:49;15.90;99.90
40822;DHT22;26542;50.836;5.356;2022-08-21T05:38:18;15.90;99.90
40822;DHT22;26542;50.836;5.356;2022-08-21T05:40:45;16.00;99.90
40822;DHT22;26542;50.836;5.356;2022-08-21T05:43:11;16.10;99.80
40822;DHT22;26542;50.836;5.356;2022-08-21T05:45:37;16.20;99.90
40822;DHT22;26542;50.836;5.356;2022-08-21T05:48:08;16.30;99.90
40822;DHT22;26542;50.836;5.356;2022-08-21T05:50:35;16.50;99.90
40822;DHT22;26542;50.836;5.356;2022-08-21T05:53:04;16.70;99.90
40822;DHT22;26542;50.836;5.356;2022-08-21T05:56:05;16.90;99.60
40822;DHT22;26542;50.836;5.356;2022-08-21T05:59:17;17.10;99.20
40822;DHT22;26542;50.836;5.356;2022-08-21T06:01:46;17.50;98.70
40822;DHT22;26542;50.836;5.356;2022-08-21T06:04:15;17.60;98.40
40822;DHT22;26542;50.836;5.356;2022-08-21T06:06:41;17.70;98.40
40822;DHT22;26542;50.836;5.356;2022-08-21T06:09:07;17.80;98.40
40822;DHT22;26542;50.836;5.356;2022-08-21T06:11:36;18.00;97.70
40822;DHT22;26542;50.836;5.356;2022-08-21T06:14:02;18.10;97.40
40822;DHT22;26542;50.836;5.356;2022-08-21T06:16:29;18.10;97.30
40822;DHT22;26542;50.836;5.356;2022-08-21T06:18:54;18.10;97.30
40822;DHT22;26542;50.836;5.356;2022-08-21T06:21:21;18.20;97.00
40822;DHT22;26542;50.836;5.356;2022-08-21T06:23:47;18.20;97.20
40822;DHT22;26542;50.836;5.356;2022-08-21T06:26:14;18.30;97.10
40822;DHT22;26542;50.836;5.356;2022-08-21T06:28:41;18.40;97.10
40822;DHT22;26542;50.836;5.356;2022-08-21T06:31:16;18.30;96.80
40822;DHT22;26542;50.836;5.356;2022-08-21T06:33:42;18.40;97.00
40822;DHT22;26542;50.836;5.356;2022-08-21T06:36:08;18.40;97.00
40822;DHT22;26542;50.836;5.356;2022-08-21T06:38:35;18.40;96.80
40822;DHT22;26542;50.836;5.356;2022-08-21T06:41:04;18.40;97.50
40822;DHT22;26542;50.836;5.356;2022-08-21T06:43:30;18.70;96.90
40822;DHT22;26542;50.836;5.356;2022-08-21T06:45:55;18.70;96.70
40822;DHT22;26542;50.836;5.356;2022-08-21T06:48:21;18.60;96.80
40822;DHT22;26542;50.836;5.356;2022-08-21T06:50:47;18.60;96.70
40822;DHT22;26542;50.836;5.356;2022-08-21T06:53:16;18.70;96.80
40822;DHT22;26542;50.836;5.356;2022-08-21T06:55:42;18.80;96.70
40822;DHT22;26542;50.836;5.356;2022-08-21T06:58:11;18.80;96.80
40822;DHT22;26542;50.836;5.356;2022-08-21T07:00:42;18.80;97.00
40822;DHT22;26542;50.836;5.356;2022-08-21T07:03:16;18.80;96.80
40822;DHT22;26542;50.836;5.356;2022-08-21T07:05:41;19.00;96.70
40822;DHT22;26542;50.836;5.356;2022-08-21T07:08:07;19.10;96.40
40822;DHT22;26542;50.836;5.356;2022-08-21T07:10:33;19.10;96.50
40822;DHT22;26542;50.836;5.356;2022-08-21T07:12:59;19.20;96.60
40822;DHT22;26542;50.836;5.356;2022-08-21T07:15:34;19.20;97.00
40822;DHT22;26542;50.836;5.356;2022-08-21T07:18:00;19.20;96.60
40822;DHT22;26542;50.836;5.356;2022-08-21T07:20:27;19.20;96.90
40822;DHT22;26542;50.836;5.356;2022-08-21T07:22:54;19.50;96.80
40822;DHT22;26542;50.836;5.356;2022-08-21T07:25:22;19.60;96.20
40822;DHT22;26542;50.836;5.356;2022-08-21T07:27:48;19.60;96.00
40822;DHT22;26542;50.836;5.356;2022-08-21T07:30:14;19.60;96.20
40822;DHT22;26542;50.836;5.356;2022-08-21T07:32:43;19.60;96.00
40822;DHT22;26542;50.836;5.356;2022-08-21T07:35:09;19.70;95.90
40822;DHT22;26542;50.836;5.356;2022-08-21T07:37:37;19.90;95.30
40822;DHT22;26542;50.836;5.356;2022-08-21T07:40:03;20.00;95.30
40822;DHT22;26542;50.836;5.356;2022-08-21T07:42:29;20.10;95.20
40822;DHT22;26542;50.836;5.356;2022-08-21T07:44:55;20.10;94.50
40822;DHT22;26542;50.836;5.356;2022-08-21T07:47:21;20.20;94.70
40822;DHT22;26542;50.836;5.356;2022-08-21T07:49:47;20.40;94.30
40822;DHT22;26542;50.836;5.356;2022-08-21T07:52:13;20.40;94.50
40822;DHT22;26542;50.836;5.356;2022-08-21T07:54:38;20.50;94.60
40822;DHT22;26542;50.836;5.356;2022-08-21T07:57:06;20.60;94.00
40822;DHT22;26542;50.836;5.356;2022-08-21T07:59:32;20.70;93.70
40822;DHT22;26542;50.836;5.356;2022-08-21T08:01:57;20.70;93.90
40822;DHT22;26542;50.836;5.356;2022-08-21T08:04:23;20.70;94.00
40822;DHT22;26542;50.836;5.356;2022-08-21T08:06:50;20.80;93.60
40822;DHT22;26542;50.836;5.356;2022-08-21T08:09:16;21.00;93.50
40822;DHT22;26542;50.836;5.356;2022-08-21T08:11:42;21.10;93.10
40822;DHT22;26542;50.836;5.356;2022-08-21T08:14:13;21.10;93.50
40822;DHT22;26542;50.836;5.356;2022-08-21T08:16:39;21.30;92.50
40822;DHT22;26542;50.836;5.356;2022-08-21T08:19:05;21.40;93.00
40822;DHT22;26542;50.836;5.356;2022-08-21T08:21:31;21.30;92.40
40822;DHT22;26542;50.836;5.356;2022-08-21T08:23:59;21.40;92.50
40822;DHT22;26542;50.836;5.356;2022-08-21T08:26:24;21.40;91.70
40822;DHT22;26542;50.836;5.356;2022-08-21T08:28:56;21.30;92.00
40822;DHT22;26542;50.836;5.356;2022-08-21T08:31:21;21.50;92.10
40822;DHT22;26542;50.836;5.356;2022-08-21T08:33:48;21.50;91.60
40822;DHT22;26542;50.836;5.356;2022-08-21T08:36:17;21.50;91.60
40822;DHT22;26542;50.836;5.356;2022-08-21T08:38:46;21.60;91.40
40822;DHT22;26542;50.836;5.356;2022-08-21T08:43:39;21.60;91.40
40822;DHT22;26542;50.836;5.356;2022-08-21T08:46:13;21.60;90.90
40822;DHT22;26542;50.836;5.356;2022-08-21T08:51:47;21.70;91.60
40822;DHT22;26542;50.836;5.356;2022-08-21T08:54:31;21.90;91.30
40822;DHT22;26542;50.836;5.356;2022-08-21T08:57:03;22.10;90.80
40822;DHT22;26542;50.836;5.356;2022-08-21T08:59:43;22.20;91.00
40822;DHT22;26542;50.836;5.356;2022-08-21T09:02:12;22.40;90.70
40822;DHT22;26542;50.836;5.356;2022-08-21T09:04:41;22.60;90.80
40822;DHT22;26542;50.836;5.356;2022-08-21T09:18:20;23.20;88.70
40822;DHT22;26542;50.836;5.356;2022-08-21T09:21:11;23.30;87.30
40822;DHT22;26542;50.836;5.356;2022-08-21T09:26:14;23.40;87.60
40822;DHT22;26542;50.836;5.356;2022-08-21T09:28:41;23.50;87.20
40822;DHT22;26542;50.836;5.356;2022-08-21T09:31:28;23.50;86.80
40822;DHT22;26542;50.836;5.356;2022-08-21T09:33:59;23.60;86.50
40822;DHT22;26542;50.836;5.356;2022-08-21T09:36:41;23.70;86.90
40822;DHT22;26542;50.836;5.356;2022-08-21T09:39:10;23.60;85.50
40822;DHT22;26542;50.836;5.356;2022-08-21T09:41:39;23.60;86.20
40822;DHT22;26542;50.836;5.356;2022-08-21T09:44:08;23.70;86.00
40822;DHT22;26542;50.836;5.356;2022-08-21T09:46:34;23.70;84.80
40822;DHT22;26542;50.836;5.356;2022-08-21T09:49:03;23.70;85.00
40822;DHT22;26542;50.836;5.356;2022-08-21T09:51:32;23.70;85.10
40822;DHT22;26542;50.836;5.356;2022-08-21T09:56:38;24.10;83.50
40822;DHT22;26542;50.836;5.356;2022-08-21T10:01:57;24.30;84.00
40822;DHT22;26542;50.836;5.356;2022-08-21T10:04:31;24.50;82.20
40822;DHT22;26542;50.836;5.356;2022-08-21T10:07:13;24.50;83.40
40822;DHT22;26542;50.836;5.356;2022-08-21T10:09:41;24.50;83.50
40822;DHT22;26542;50.836;5.356;2022-08-21T10:12:20;24.50;82.00
40822;DHT22;26542;50.836;5.356;2022-08-21T10:15:17;24.50;81.80
40822;DHT22;26542;50.836;5.356;2022-08-21T10:17:57;24.40;82.40
40822;DHT22;26542;50.836;5.356;2022-08-21T10:20:59;24.60;82.70
40822;DHT22;26542;50.836;5.356;2022-08-21T10:23:42;24.60;81.50
40822;DHT22;26542;50.836;5.356;2022-08-21T10:39:33;25.30;78.90
40822;DHT22;26542;50.836;5.356;2022-08-21T10:42:12;25.40;77.90
40822;DHT22;26542;50.836;5.356;2022-08-21T10:45:07;25.60;77.40
40822;DHT22;26542;50.836;5.356;2022-08-21T10:47:41;25.50;77.70
40822;DHT22;26542;50.836;5.356;2022-08-21T10:50:10;25.50;78.40
40822;DHT22;26542;50.836;5.356;2022-08-21T10:53:08;25.70;78.20
40822;DHT22;26542;50.836;5.356;2022-08-21T10:58:30;25.70;77.50
40822;DHT22;26542;50.836;5.356;2022-08-21T11:01:08;25.80;76.90
40822;DHT22;26542;50.836;5.356;2022-08-21T11:03:43;25.70;76.50
40822;DHT22;26542;50.836;5.356;2022-08-21T11:06:25;25.70;77.40
40822;DHT22;26542;50.836;5.356;2022-08-21T11:08:57;25.60;77.50
40822;DHT22;26542;50.836;5.356;2022-08-21T11:11:45;25.50;78.10
40822;DHT22;26542;50.836;5.356;2022-08-21T11:14:29;25.40;78.10
40822;DHT22;26542;50.836;5.356;2022-08-21T11:17:07;25.50;77.90
40822;DHT22;26542;50.836;5.356;2022-08-21T11:22:25;25.60;78.60
40822;DHT22;26542;50.836;5.356;2022-08-21T11:25:44;25.70;78.30
40822;DHT22;26542;50.836;5.356;2022-08-21T11:28:28;25.40;76.40
40822;DHT22;26542;50.836;5.356;2022-08-21T11:34:08;25.20;78.10
40822;DHT22;26542;50.836;5.356;2022-08-21T11:40:00;25.60;77.90
40822;DHT22;26542;50.836;5.356;2022-08-21T11:51:09;26.00;78.40
40822;DHT22;26542;50.836;5.356;2022-08-21T11:53:59;26.20;77.30
40822;DHT22;26542;50.836;5.356;2022-08-21T11:56:44;26.20;76.50
40822;DHT22;26542;50.836;5.356;2022-08-21T11:59:21;26.20;76.20
40822;DHT22;26542;50.836;5.356;2022-08-21T12:01:52;26.10;75.70
40822;DHT22;26542;50.836;5.356;2022-08-21T12:04:43;26.20;76.60
40822;DHT22;26542;50.836;5.356;2022-08-21T12:10:14;26.50;74.80
40822;DHT22;26542;50.836;5.356;2022-08-21T12:12:46;26.40;74.80
40822;DHT22;26542;50.836;5.356;2022-08-21T12:17:59;26.50;75.60
40822;DHT22;26542;50.836;5.356;2022-08-21T12:23:25;26.90;75.60
40822;DHT22;26542;50.836;5.356;2022-08-21T12:26:18;26.80;73.70
40822;DHT22;26542;50.836;5.356;2022-08-21T12:32:26;27.00;75.40
40822;DHT22;26542;50.836;5.356;2022-08-21T12:35:07;26.90;73.20
40822;DHT22;26542;50.836;5.356;2022-08-21T12:38:01;26.90;74.10
40822;DHT22;26542;50.836;5.356;2022-08-21T12:40:36;27.10;73.50
40822;DHT22;26542;50.836;5.356;2022-08-21T12:43:13;27.10;73.20
40822;DHT22;26542;50.836;5.356;2022-08-21T12:45:46;27.20;73.30
40822;DHT22;26542;50.836;5.356;2022-08-21T12:48:25;27.10;74.20
40822;DHT22;26542;50.836;5.356;2022-08-21T12:53:47;26.50;73.40
40822;DHT22;26542;50.836;5.356;2022-08-21T12:56:31;26.50;74.60
40822;DHT22;26542;50.836;5.356;2022-08-21T12:59:06;26.50;74.40
40822;DHT22;26542;50.836;5.356;2022-08-21T13:01:46;26.40;74.50
40822;DHT22;26542;50.836;5.356;2022-08-21T13:04:22;26.40;75.90
40822;DHT22;26542;50.836;5.356;2022-08-21T13:06:51;26.50;73.90
40822;DHT22;26542;50.836;5.356;2022-08-21T13:09:27;26.50;73.90
40822;DHT22;26542;50.836;5.356;2022-08-21T13:11:56;26.40;74.60
40822;DHT22;26542;50.836;5.356;2022-08-21T13:14:30;26.50;74.40
40822;DHT22;26542;50.836;5.356;2022-08-21T13:17:01;26.80;75.60
40822;DHT22;26542;50.836;5.356;2022-08-21T13:19:29;27.00;73.90
40822;DHT22;26542;50.836;5.356;2022-08-21T13:21:55;27.20;73.00
40822;DHT22;26542;50.836;5.356;2022-08-21T13:26:48;27.20;72.40
40822;DHT22;26542;50.836;5.356;2022-08-21T13:29:18;27.30;73.60
40822;DHT22;26542;50.836;5.356;2022-08-21T13:31:52;27.50;73.20
40822;DHT22;26542;50.836;5.356;2022-08-21T13:34:22;27.50;72.20
40822;DHT22;26542;50.836;5.356;2022-08-21T13:36:51;27.60;71.90
40822;DHT22;26542;50.836;5.356;2022-08-21T13:39:19;27.70;71.80
40822;DHT22;26542;50.836;5.356;2022-08-21T13:41:49;27.70;72.50
40822;DHT22;26542;50.836;5.356;2022-08-21T13:44:44;27.60;72.00
40822;DHT22;26542;50.836;5.356;2022-08-21T13:47:12;27.70;71.20
40822;DHT22;26542;50.836;5.356;2022-08-21T13:49:43;27.70;72.60
40822;DHT22;26542;50.836;5.356;2022-08-21T13:52:21;27.70;72.00
40822;DHT22;26542;50.836;5.356;2022-08-21T13:54:59;27.80;72.70
40822;DHT22;26542;50.836;5.356;2022-08-21T13:57:29;28.20;72.20
40822;DHT22;26542;50.836;5.356;2022-08-21T14:00:27;28.40;71.10
40822;DHT22;26542;50.836;5.356;2022-08-21T14:03:01;28.40;70.70
40822;DHT22;26542;50.836;5.356;2022-08-21T14:05:33;28.30;70.40
40822;DHT22;26542;50.836;5.356;2022-08-21T14:08:10;28.10;69.60
40822;DHT22;26542;50.836;5.356;2022-08-21T14:10:43;28.00;70.10
40822;DHT22;26542;50.836;5.356;2022-08-21T14:13:21;28.20;70.40
40822;DHT22;26542;50.836;5.356;2022-08-21T14:15:58;28.40;70.60
40822;DHT22;26542;50.836;5.356;2022-08-21T14:18:29;28.50;70.20
40822;DHT22;26542;50.836;5.356;2022-08-21T14:21:06;28.60;70.60
40822;DHT22;26542;50.836;5.356;2022-08-21T14:23:33;28.30;70.70
40822;DHT22;26542;50.836;5.356;2022-08-21T14:26:07;28.20;71.60
40822;DHT22;26542;50.836;5.356;2022-08-21T14:28:40;27.90;70.10
40822;DHT22;26542;50.836;5.356;2022-08-21T14:31:16;27.70;71.60
40822;DHT22;26542;50.836;5.356;2022-08-21T14:33:42;27.90;71.20
40822;DHT22;26542;50.836;5.356;2022-08-21T14:36:08;27.80;70.70
40822;DHT22;26542;50.836;5.356;2022-08-21T14:38:37;27.80;70.50
40822;DHT22;26542;50.836;5.356;2022-08-21T14:43:36;27.60;70.50
40822;DHT22;26542;50.836;5.356;2022-08-21T14:46:04;27.60;70.40
40822;DHT22;26542;50.836;5.356;2022-08-21T14:48:30;27.40;69.30
40822;DHT22;26542;50.836;5.356;2022-08-21T14:50:56;27.50;70.00
40822;DHT22;26542;50.836;5.356;2022-08-21T14:53:28;27.50;70.10
40822;DHT22;26542;50.836;5.356;2022-08-21T14:55:54;27.60;69.60
40822;DHT22;26542;50.836;5.356;2022-08-21T14:58:31;27.80;69.30
40822;DHT22;26542;50.836;5.356;2022-08-21T15:00:57;27.90;70.20
40822;DHT22;26542;50.836;5.356;2022-08-21T15:03:31;28.10;70.00
40822;DHT22;26542;50.836;5.356;2022-08-21T15:05:58;28.20;69.70
40822;DHT22;26542;50.836;5.356;2022-08-21T15:08:24;28.20;69.50
40822;DHT22;26542;50.836;5.356;2022-08-21T15:10:52;28.20;69.10
40822;DHT22;26542;50.836;5.356;2022-08-21T15:13:19;28.20;70.60
40822;DHT22;26542;50.836;5.356;2022-08-21T15:15:47;28.10;71.50
40822;DHT22;26542;50.836;5.356;2022-08-21T15:18:14;28.10;70.50
40822;DHT22;26542;50.836;5.356;2022-08-21T15:20:39;27.90;70.30
40822;DHT22;26542;50.836;5.356;2022-08-21T15:23:06;27.80;69.00
40822;DHT22;26542;50.836;5.356;2022-08-21T15:25:35;27.80;69.40
40822;DHT22;26542;50.836;5.356;2022-08-21T15:28:02;27.80;69.80
40822;DHT22;26542;50.836;5.356;2022-08-21T15:30:29;27.80;71.80
40822;DHT22;26542;50.836;5.356;2022-08-21T15:32:56;27.80;69.90
40822;DHT22;26542;50.836;5.356;2022-08-21T15:35:22;27.90;69.40
40822;DHT22;26542;50.836;5.356;2022-08-21T15:37:48;27.80;69.80
40822;DHT22;26542;50.836;5.356;2022-08-21T15:40:15;27.60;68.90
40822;DHT22;26542;50.836;5.356;2022-08-21T15:42:42;27.50;70.10
40822;DHT22;26542;50.836;5.356;2022-08-21T15:45:10;27.50;69.20
40822;DHT22;26542;50.836;5.356;2022-08-21T15:47:38;27.60;70.10
40822;DHT22;26542;50.836;5.356;2022-08-21T15:50:07;27.60;69.20
40822;DHT22;26542;50.836;5.356;2022-08-21T15:52:33;27.50;69.20
40822;DHT22;26542;50.836;5.356;2022-08-21T15:55:19;27.50;69.20
40822;DHT22;26542;50.836;5.356;2022-08-21T15:57:51;27.60;69.00
40822;DHT22;26542;50.836;5.356;2022-08-21T16:00:20;27.60;69.40
40822;DHT22;26542;50.836;5.356;2022-08-21T16:02:53;27.60;70.30
40822;DHT22;26542;50.836;5.356;2022-08-21T16:05:21;27.70;69.60
40822;DHT22;26542;50.836;5.356;2022-08-21T16:07:51;27.70;69.40
40822;DHT22;26542;50.836;5.356;2022-08-21T16:10:20;27.60;68.60
40822;DHT22;26542;50.836;5.356;2022-08-21T16:12:59;27.70;68.60
40822;DHT22;26542;50.836;5.356;2022-08-21T16:15:26;27.60;69.30
40822;DHT22;26542;50.836;5.356;2022-08-21T16:17:53;27.50;69.60
40822;DHT22;26542;50.836;5.356;2022-08-21T16:20:29;27.40;69.30
40822;DHT22;26542;50.836;5.356;2022-08-21T16:22:58;27.40;69.30
40822;DHT22;26542;50.836;5.356;2022-08-21T16:25:24;27.30;69.80
40822;DHT22;26542;50.836;5.356;2022-08-21T16:27:57;27.20;70.10
40822;DHT22;26542;50.836;5.356;2022-08-21T16:30:28;27.10;68.80
40822;DHT22;26542;50.836;5.356;2022-08-21T16:32:57;27.20;69.50
40822;DHT22;26542;50.836;5.356;2022-08-21T16:35:24;27.20;69.70
40822;DHT22;26542;50.836;5.356;2022-08-21T16:37:51;27.00;70.30
40822;DHT22;26542;50.836;5.356;2022-08-21T16:40:16;27.20;69.80
40822;DHT22;26542;50.836;5.356;2022-08-21T16:42:44;27.10;70.00
40822;DHT22;26542;50.836;5.356;2022-08-21T16:45:20;27.00;70.20
40822;DHT22;26542;50.836;5.356;2022-08-21T16:47:46;27.10;70.20
40822;DHT22;26542;50.836;5.356;2022-08-21T16:50:19;27.10;70.60
40822;DHT22;26542;50.836;5.356;2022-08-21T16:52:46;27.00;70.60
40822;DHT22;26542;50.836;5.356;2022-08-21T16:55:12;26.90;71.10
40822;DHT22;26542;50.836;5.356;2022-08-21T16:57:40;26.90;70.40
40822;DHT22;26542;50.836;5.356;2022-08-21T17:00:08;26.90;70.30
40822;DHT22;26542;50.836;5.356;2022-08-21T17:02:38;26.70;70.00
40822;DHT22;26542;50.836;5.356;2022-08-21T17:05:07;26.60;70.30
40822;DHT22;26542;50.836;5.356;2022-08-21T17:07:36;26.60;69.80
40822;DHT22;26542;50.836;5.356;2022-08-21T17:10:05;26.50;70.40